AAA915 YBBN-YBCG
Flight info
| Callsign | AAA915 |
|---|---|
| Flight time | 0h 27m |
| Altitude | 11000 |
| Route | CITEE DCT VERIK DCT IRPOD |
| Aircraft | F28/M-SDFIRWY/H |
Departure
| Time | 2026-05-06 11:47 |
|---|---|
| Airport | Brisbane International Airport (YBBN) |
Arrival
| Time | 2026-05-06 12:15 |
|---|---|
| Airport | Gold Coast Airport (YBCG) |
| Time | Latitude | Longitude | Altitude | Speed | Heading |
|---|---|---|---|---|---|
| 2026-05-06 11:07 | -27.38146 | 153.12261 | 21 ft | 0 kts | 339° |
| 2026-05-06 11:30 | -27.38148 | 153.12262 | 19 ft | 2 kts | 339° |
| 2026-05-06 11:30 | -27.38162 | 153.12269 | 20 ft | 3 kts | 334° |
| 2026-05-06 11:30 | -27.38179 | 153.12266 | 19 ft | 3 kts | 37° |
| 2026-05-06 11:30 | -27.38187 | 153.12247 | 20 ft | 3 kts | 104° |
| 2026-05-06 11:31 | -27.38175 | 153.12218 | 22 ft | 3 kts | 117° |
| 2026-05-06 11:31 | -27.38174 | 153.12215 | 22 ft | 0 kts | 117° |
| 2026-05-06 11:37 | -27.38176 | 153.12220 | 19 ft | 2 kts | 117° |
| 2026-05-06 11:38 | -27.38189 | 153.12248 | 19 ft | 6 kts | 117° |
| 2026-05-06 11:38 | -27.38205 | 153.12298 | 19 ft | 3 kts | 87° |
| 2026-05-06 11:38 | -27.38214 | 153.12327 | 20 ft | 8 kts | 115° |
| 2026-05-06 11:38 | -27.38244 | 153.12394 | 19 ft | 12 kts | 116° |
| 2026-05-06 11:39 | -27.38286 | 153.12487 | 19 ft | 11 kts | 117° |
| 2026-05-06 11:39 | -27.38311 | 153.12553 | 19 ft | 8 kts | 81° |
| 2026-05-06 11:39 | -27.38286 | 153.12595 | 20 ft | 6 kts | 33° |
| 2026-05-06 11:39 | -27.38232 | 153.12628 | 19 ft | 13 kts | 27° |
| 2026-05-06 11:40 | -27.38145 | 153.12677 | 19 ft | 14 kts | 24° |
| 2026-05-06 11:40 | -27.38061 | 153.12721 | 19 ft | 13 kts | 31° |
| 2026-05-06 11:40 | -27.37988 | 153.12767 | 19 ft | 12 kts | 27° |
| 2026-05-06 11:40 | -27.37917 | 153.12809 | 19 ft | 11 kts | 28° |
| 2026-05-06 11:41 | -27.37849 | 153.12849 | 19 ft | 11 kts | 27° |
| 2026-05-06 11:41 | -27.37784 | 153.12885 | 19 ft | 10 kts | 25° |
| 2026-05-06 11:41 | -27.37723 | 153.12920 | 19 ft | 10 kts | 26° |
| 2026-05-06 11:41 | -27.37664 | 153.12952 | 19 ft | 9 kts | 27° |
| 2026-05-06 11:42 | -27.37607 | 153.12985 | 19 ft | 9 kts | 28° |
| 2026-05-06 11:42 | -27.37548 | 153.13019 | 18 ft | 10 kts | 26° |
| 2026-05-06 11:42 | -27.37481 | 153.13058 | 20 ft | 11 kts | 27° |
| 2026-05-06 11:42 | -27.37406 | 153.13100 | 20 ft | 13 kts | 27° |
| 2026-05-06 11:43 | -27.37325 | 153.13146 | 19 ft | 13 kts | 26° |
| 2026-05-06 11:43 | -27.37269 | 153.13207 | 21 ft | 9 kts | 90° |
| 2026-05-06 11:43 | -27.37285 | 153.13265 | 19 ft | 7 kts | 115° |
| 2026-05-06 11:44 | -27.37326 | 153.13353 | 19 ft | 5 kts | 118° |
| 2026-05-06 11:44 | -27.37330 | 153.13361 | 20 ft | 0 kts | 120° |
| 2026-05-06 11:45 | -27.37332 | 153.13365 | 20 ft | 3 kts | 120° |
| 2026-05-06 11:46 | -27.37359 | 153.13399 | 19 ft | 9 kts | 139° |
| 2026-05-06 11:46 | -27.37431 | 153.13433 | 22 ft | 14 kts | 173° |
| 2026-05-06 11:46 | -27.37505 | 153.13410 | 22 ft | 4 kts | 207° |
| 2026-05-06 11:46 | -27.37700 | 153.13299 | 20 ft | 68 kts | 206° |
| 2026-05-06 11:47 | -27.38359 | 153.12924 | 22 ft | 140 kts | 206° |
| 2026-05-06 11:47 | -27.39332 | 153.12322 | 513 ft | 172 kts | 211° |
| 2026-05-06 11:47 | -27.40412 | 153.11739 | 1579 ft | 176 kts | 194° |
| 2026-05-06 11:47 | -27.41738 | 153.11561 | 2268 ft | 209 kts | 176° |
| 2026-05-06 11:48 | -27.43264 | 153.11686 | 3073 ft | 233 kts | 179° |
| 2026-05-06 11:48 | -27.44947 | 153.11616 | 3675 ft | 233 kts | 182° |
| 2026-05-06 11:48 | -27.46568 | 153.11580 | 4208 ft | 246 kts | 174° |
| 2026-05-06 11:48 | -27.48066 | 153.12177 | 5363 ft | 220 kts | 149° |
| 2026-05-06 11:49 | -27.49316 | 153.13222 | 6170 ft | 233 kts | 143° |
| 2026-05-06 11:49 | -27.50602 | 153.14382 | 6567 ft | 242 kts | 141° |
| 2026-05-06 11:49 | -27.51873 | 153.15628 | 7038 ft | 243 kts | 140° |
| 2026-05-06 11:49 | -27.53129 | 153.16863 | 7731 ft | 239 kts | 140° |
| 2026-05-06 11:50 | -27.54429 | 153.18145 | 7881 ft | 265 kts | 140° |
| 2026-05-06 11:50 | -27.55817 | 153.19537 | 7953 ft | 267 kts | 139° |
| 2026-05-06 11:50 | -27.57182 | 153.20947 | 8019 ft | 266 kts | 139° |
| 2026-05-06 11:50 | -27.58581 | 153.22332 | 7948 ft | 270 kts | 140° |
| 2026-05-06 11:51 | -27.60039 | 153.23687 | 7742 ft | 273 kts | 144° |
| 2026-05-06 11:51 | -27.61595 | 153.24926 | 7582 ft | 273 kts | 148° |
| 2026-05-06 11:51 | -27.63188 | 153.25988 | 7577 ft | 266 kts | 158° |
| 2026-05-06 11:51 | -27.64980 | 153.26321 | 7552 ft | 260 kts | 184° |
| 2026-05-06 11:52 | -27.66735 | 153.26086 | 7637 ft | 254 kts | 192° |
| 2026-05-06 11:52 | -27.68433 | 153.25563 | 7629 ft | 253 kts | 200° |
| 2026-05-06 11:52 | -27.70163 | 153.25337 | 7667 ft | 253 kts | 173° |
| 2026-05-06 11:52 | -27.71790 | 153.26072 | 7710 ft | 255 kts | 144° |
| 2026-05-06 11:53 | -27.73022 | 153.27506 | 7784 ft | 255 kts | 131° |
| 2026-05-06 11:53 | -27.74136 | 153.29016 | 8160 ft | 244 kts | 130° |
| 2026-05-06 11:53 | -27.75260 | 153.30519 | 8165 ft | 249 kts | 133° |
| 2026-05-06 11:53 | -27.76555 | 153.31919 | 7754 ft | 269 kts | 138° |
| 2026-05-06 11:54 | -27.78004 | 153.33202 | 7785 ft | 267 kts | 148° |
| 2026-05-06 11:54 | -27.79550 | 153.34291 | 8011 ft | 252 kts | 151° |
| 2026-05-06 11:54 | -27.81078 | 153.35196 | 8311 ft | 243 kts | 160° |
| 2026-05-06 11:54 | -27.82686 | 153.35788 | 8265 ft | 252 kts | 168° |
| 2026-05-06 11:55 | -27.84424 | 153.36191 | 8065 ft | 260 kts | 171° |
| 2026-05-06 11:55 | -27.86215 | 153.36605 | 7910 ft | 265 kts | 170° |
| 2026-05-06 11:55 | -27.88045 | 153.37001 | 7903 ft | 262 kts | 171° |
| 2026-05-06 11:55 | -27.89864 | 153.37425 | 7352 ft | 281 kts | 169° |
| 2026-05-06 11:56 | -27.91825 | 153.38006 | 6626 ft | 298 kts | 166° |
| 2026-05-06 11:56 | -27.93847 | 153.38659 | 6002 ft | 305 kts | 165° |
| 2026-05-06 11:56 | -27.95820 | 153.39311 | 5435 ft | 286 kts | 165° |
| 2026-05-06 11:56 | -27.97660 | 153.39925 | 4820 ft | 273 kts | 165° |
| 2026-05-06 11:57 | -27.99434 | 153.40511 | 4185 ft | 261 kts | 165° |
| 2026-05-06 11:57 | -28.01154 | 153.41096 | 3664 ft | 250 kts | 163° |
| 2026-05-06 11:57 | -28.02728 | 153.41779 | 3404 ft | 234 kts | 153° |
| 2026-05-06 11:57 | -28.04160 | 153.42629 | 2924 ft | 242 kts | 152° |
| 2026-05-06 11:58 | -28.05669 | 153.43547 | 2810 ft | 250 kts | 151° |
| 2026-05-06 11:58 | -28.07173 | 153.44506 | 2666 ft | 239 kts | 149° |
| 2026-05-06 11:58 | -28.08507 | 153.45485 | 2243 ft | 218 kts | 144° |
| 2026-05-06 11:58 | -28.09721 | 153.46381 | 1926 ft | 198 kts | 149° |
| 2026-05-06 11:59 | -28.10766 | 153.47013 | 1873 ft | 158 kts | 152° |
| 2026-05-06 11:59 | -28.11720 | 153.47588 | 1574 ft | 151 kts | 151° |
| 2026-05-06 11:59 | -28.12627 | 153.48163 | 1201 ft | 153 kts | 150° |
| 2026-05-06 11:59 | -28.13552 | 153.48771 | 831 ft | 151 kts | 150° |
| 2026-05-06 12:00 | -28.14448 | 153.49329 | 471 ft | 144 kts | 154° |
| 2026-05-06 12:00 | -28.15295 | 153.49849 | 173 ft | 133 kts | 152° |
| 2026-05-06 12:00 | -28.16105 | 153.50360 | 37 ft | 128 kts | 152° |
| 2026-05-06 12:00 | -28.16890 | 153.50848 | 233 ft | 148 kts | 152° |
| 2026-05-06 12:01 | -28.17917 | 153.51465 | 932 ft | 183 kts | 153° |
| 2026-05-06 12:01 | -28.19129 | 153.52151 | 1774 ft | 207 kts | 154° |
| 2026-05-06 12:01 | -28.20468 | 153.52840 | 2570 ft | 221 kts | 155° |
| 2026-05-06 12:01 | -28.21740 | 153.53741 | 3108 ft | 220 kts | 135° |
| 2026-05-06 12:02 | -28.22452 | 153.55307 | 3029 ft | 231 kts | 103° |
| 2026-05-06 12:02 | -28.22300 | 153.57107 | 3012 ft | 232 kts | 70° |
| 2026-05-06 12:02 | -28.21404 | 153.58577 | 3246 ft | 233 kts | 45° |
| 2026-05-06 12:02 | -28.20136 | 153.59782 | 3165 ft | 240 kts | 41° |
| 2026-05-06 12:03 | -28.18856 | 153.61014 | 2985 ft | 243 kts | 41° |
| 2026-05-06 12:03 | -28.17555 | 153.62231 | 2859 ft | 239 kts | 40° |
| 2026-05-06 12:03 | -28.16287 | 153.63373 | 2811 ft | 225 kts | 41° |
| 2026-05-06 12:03 | -28.15291 | 153.64604 | 3032 ft | 212 kts | 58° |
| 2026-05-06 12:04 | -28.14493 | 153.65989 | 3151 ft | 209 kts | 46° |
| 2026-05-06 12:04 | -28.13185 | 153.66595 | 3225 ft | 216 kts | 3° |
| 2026-05-06 12:04 | -28.11691 | 153.66139 | 2904 ft | 230 kts | 330° |
| 2026-05-06 12:04 | -28.10302 | 153.65263 | 2901 ft | 224 kts | 331° |
| 2026-05-06 12:05 | -28.08943 | 153.64401 | 2907 ft | 225 kts | 332° |
| 2026-05-06 12:05 | -28.07591 | 153.63549 | 2996 ft | 220 kts | 332° |
| 2026-05-06 12:05 | -28.06256 | 153.62739 | 3095 ft | 217 kts | 332° |
| 2026-05-06 12:05 | -28.04903 | 153.61943 | 3124 ft | 220 kts | 332° |
| 2026-05-06 12:06 | -28.03546 | 153.61129 | 3109 ft | 223 kts | 332° |
| 2026-05-06 12:06 | -28.02178 | 153.60298 | 3078 ft | 223 kts | 332° |
| 2026-05-06 12:06 | -28.00804 | 153.59471 | 3045 ft | 223 kts | 332° |
| 2026-05-06 12:06 | -27.99436 | 153.58652 | 3072 ft | 223 kts | 332° |
| 2026-05-06 12:07 | -27.98085 | 153.57834 | 3100 ft | 220 kts | 331° |
| 2026-05-06 12:07 | -27.96744 | 153.56977 | 3047 ft | 225 kts | 330° |
| 2026-05-06 12:07 | -27.95382 | 153.56061 | 2859 ft | 230 kts | 328° |
| 2026-05-06 12:07 | -27.94045 | 153.55102 | 2951 ft | 220 kts | 328° |
| 2026-05-06 12:08 | -27.92766 | 153.54241 | 3303 ft | 208 kts | 330° |
| 2026-05-06 12:08 | -27.91460 | 153.53432 | 3195 ft | 220 kts | 330° |
| 2026-05-06 12:08 | -27.90451 | 153.52163 | 3101 ft | 223 kts | 292° |
| 2026-05-06 12:08 | -27.90323 | 153.50430 | 2957 ft | 224 kts | 257° |
| 2026-05-06 12:09 | -27.90937 | 153.48818 | 2715 ft | 226 kts | 235° |
| 2026-05-06 12:09 | -27.91762 | 153.47341 | 2874 ft | 220 kts | 236° |
| 2026-05-06 12:09 | -27.92590 | 153.45849 | 2857 ft | 227 kts | 236° |
| 2026-05-06 12:09 | -27.93648 | 153.44616 | 3160 ft | 214 kts | 209° |
| 2026-05-06 12:10 | -27.95022 | 153.43991 | 3244 ft | 218 kts | 196° |
| 2026-05-06 12:10 | -27.96481 | 153.43473 | 3272 ft | 223 kts | 197° |
| 2026-05-06 12:10 | -27.97965 | 153.42903 | 2975 ft | 226 kts | 198° |
| 2026-05-06 12:10 | -27.99451 | 153.42332 | 2707 ft | 226 kts | 197° |
| 2026-05-06 12:11 | -28.00943 | 153.41812 | 2429 ft | 222 kts | 192° |
| 2026-05-06 12:11 | -28.02438 | 153.41749 | 2412 ft | 212 kts | 169° |
| 2026-05-06 12:11 | -28.03773 | 153.42378 | 2385 ft | 208 kts | 148° |
| 2026-05-06 12:11 | -28.05010 | 153.43273 | 2185 ft | 213 kts | 147° |
| 2026-05-06 12:12 | -28.06258 | 153.44137 | 2139 ft | 207 kts | 149° |
| 2026-05-06 12:12 | -28.07518 | 153.44934 | 1943 ft | 208 kts | 150° |
| 2026-05-06 12:12 | -28.08776 | 153.45735 | 1681 ft | 205 kts | 149° |
| 2026-05-06 12:12 | -28.09984 | 153.46513 | 1400 ft | 200 kts | 150° |
| 2026-05-06 12:13 | -28.11144 | 153.47254 | 1107 ft | 181 kts | 151° |
| 2026-05-06 12:13 | -28.12133 | 153.47873 | 956 ft | 147 kts | 151° |
| 2026-05-06 12:13 | -28.13000 | 153.48408 | 685 ft | 137 kts | 152° |
| 2026-05-06 12:13 | -28.13810 | 153.48918 | 502 ft | 129 kts | 153° |
| 2026-05-06 12:14 | -28.14591 | 153.49405 | 292 ft | 129 kts | 153° |
| 2026-05-06 12:14 | -28.15374 | 153.49897 | 148 ft | 128 kts | 152° |
| 2026-05-06 12:14 | -28.16132 | 153.50379 | 26 ft | 113 kts | 152° |
| 2026-05-06 12:14 | -28.16661 | 153.50716 | 27 ft | 62 kts | 147° |
| 2026-05-06 12:15 | -28.16946 | 153.50894 | 30 ft | 20 kts | 147° |
| 2026-05-06 12:15 | -28.16942 | 153.50959 | 27 ft | 10 kts | 58° |
| 2026-05-06 12:15 | -28.16909 | 153.51024 | 24 ft | 7 kts | 60° |
| 2026-05-06 12:15 | -28.16900 | 153.51041 | 25 ft | 1 kts | 61° |
| 2026-05-06 12:16 | -28.16894 | 153.51055 | 23 ft | 3 kts | 61° |
| 2026-05-06 12:16 | -28.16872 | 153.51100 | 24 ft | 8 kts | 62° |
| 2026-05-06 12:16 | -28.16816 | 153.51133 | 25 ft | 11 kts | 338° |
| 2026-05-06 12:16 | -28.16752 | 153.51092 | 26 ft | 14 kts | 330° |
| 2026-05-06 12:17 | -28.16662 | 153.51036 | 23 ft | 13 kts | 331° |
| 2026-05-06 12:17 | -28.16588 | 153.50988 | 24 ft | 13 kts | 330° |
| 2026-05-06 12:17 | -28.16521 | 153.50946 | 24 ft | 9 kts | 332° |
| 2026-05-06 12:17 | -28.16456 | 153.50952 | 23 ft | 12 kts | 47° |
| 2026-05-06 12:18 | -28.16417 | 153.51026 | 23 ft | 10 kts | 62° |
| 2026-05-06 12:18 | -28.16383 | 153.51094 | 25 ft | 10 kts | 60° |
| 2026-05-06 12:18 | -28.16371 | 153.51146 | 23 ft | 7 kts | 120° |
| 2026-05-06 12:18 | -28.16411 | 153.51173 | 23 ft | 4 kts | 150° |
| 2026-05-06 12:19 | -28.16420 | 153.51179 | 23 ft | 0 kts | 150° |